WXM80 ListenWXM80 Stop

You find our weather info also at:

UK Metoffice

WeatherCloud

Weather Underground

Northeastern Weather Network

AWEKAS

Citizen Weather Observer Program (CWOP)

HAMweather, WeatherForYou, PWS Weather


Weather Underground History page Text

Daily Summary for June 10, 2016 Units:  English    Metric   Both
« Previous Day
Next Day »
Daily Weekly Monthly Yearly Custom
  High: Low: Average:
Temperature: 81.4 °F 56.9 °F 67.7 °F
Dew Point: 54.0 °F 40.9 °F 46.7 °F
Humidity: 69 % 29 % 49 %
Wind Speed: 6.9 mph 0.0 mph 2.3 mph
Wind Gust: 13.8 mph - -
Wind:- - West
Pressure: 30.00 in 29.88 in -
Precipitation: 0.00 in    
Historical Graphs
 
 
Tabular Data for June 10, 2016
Time Temperature Dew Point Pressure Wind Wind Speed Wind Gust Humidity Rainfall Rate (Hourly)
00:04 61.1 °F 42.3 °F 29.88 in WNW 4.1 mph 10.4 mph 50 % 0.00 in
00:09 61.1 °F 42.3 °F 29.88 in NNW 2.2 mph 6.9 mph 50 % 0.00 in
00:14 61.1 °F 42.8 °F 29.88 in NW 0.9 mph 3.5 mph 51 % 0.00 in
00:19 61.1 °F 43.3 °F 29.88 in WNW 1.3 mph 2.3 mph 52 % 0.00 in
00:24 61.0 °F 43.7 °F 29.88 in NW 1.6 mph 4.0 mph 53 % 0.00 in
00:29 60.8 °F 42.5 °F 29.88 in West 0.9 mph 2.3 mph 51 % 0.00 in
00:35 60.7 °F 43.0 °F 29.88 in NW 0.3 mph 3.5 mph 52 % 0.00 in
00:40 60.6 °F 42.4 °F 29.88 in WNW 1.1 mph 3.5 mph 51 % 0.00 in
00:45 60.4 °F 42.2 °F 29.88 in WSW 2.3 mph 4.0 mph 51 % 0.00 in
00:50 60.2 °F 42.0 °F 29.88 in SW 3.8 mph 9.2 mph 51 % 0.00 in
00:55 60.0 °F 42.3 °F 29.88 in WSW 2.5 mph 5.8 mph 52 % 0.00 in
01:00 59.8 °F 42.1 °F 29.88 in WNW 1.2 mph 3.5 mph 52 % 0.00 in
01:05 59.8 °F 41.6 °F 29.88 in SW 0.8 mph 3.5 mph 51 % 0.00 in
01:15 59.6 °F 41.4 °F 29.88 in West 1.8 mph 6.9 mph 51 % 0.00 in
01:20 59.5 °F 41.9 °F 29.88 in WNW 1.3 mph 4.6 mph 52 % 0.00 in
01:26 59.5 °F 41.9 °F 29.88 in SSE 1.2 mph 3.5 mph 52 % 0.00 in
01:31 59.4 °F 41.8 °F 29.88 in SSW 3.1 mph 5.8 mph 52 % 0.00 in
01:36 59.4 °F 41.8 °F 29.88 in West 1.6 mph 3.5 mph 52 % 0.00 in
01:41 59.4 °F 42.3 °F 29.88 in WSW 0.9 mph 3.5 mph 53 % 0.00 in
01:46 59.3 °F 42.6 °F 29.88 in WNW 0.5 mph 2.0 mph 54 % 0.00 in
01:51 59.3 °F 41.7 °F 29.88 in WSW 4.6 mph 7.0 mph 52 % 0.00 in
01:56 59.3 °F 41.7 °F 29.88 in West 2.1 mph 6.0 mph 52 % 0.00 in
02:01 59.4 °F 42.3 °F 29.88 in SW 1.7 mph 5.8 mph 53 % 0.00 in
02:06 59.4 °F 42.7 °F 29.88 in SW 2.4 mph 4.6 mph 54 % 0.00 in
02:11 59.4 °F 42.7 °F 29.88 in WSW 2.7 mph 5.8 mph 54 % 0.00 in
02:22 59.5 °F 41.3 °F 29.88 in WSW 5.4 mph 9.2 mph 51 % 0.00 in
02:27 59.6 °F 41.4 °F 29.88 in West 2.1 mph 5.8 mph 51 % 0.00 in
02:32 59.6 °F 40.9 °F 29.88 in WSW 3.5 mph 11.5 mph 50 % 0.00 in
02:37 59.7 °F 41.5 °F 29.88 in West 2.9 mph 4.6 mph 51 % 0.00 in
02:42 59.7 °F 41.5 °F 29.88 in WSW 2.7 mph 6.0 mph 51 % 0.00 in
02:47 59.7 °F 41.5 °F 29.88 in West 1.9 mph 3.5 mph 51 % 0.00 in
02:52 59.7 °F 41.0 °F 29.88 in West 2.7 mph 9.2 mph 50 % 0.00 in
02:57 59.7 °F 41.0 °F 29.88 in West 1.8 mph 8.1 mph 50 % 0.00 in
03:02 59.7 °F 41.0 °F 29.88 in WSW 5.1 mph 8.1 mph 50 % 0.00 in
03:08 59.7 °F 41.0 °F 29.88 in SW 4.3 mph 5.0 mph 50 % 0.00 in
03:13 59.7 °F 41.5 °F 29.88 in WSW 4.8 mph 8.1 mph 51 % 0.00 in
03:18 59.6 °F 40.9 °F 29.88 in West 5.0 mph 9.2 mph 50 % 0.00 in
03:28 59.6 °F 41.4 °F 29.88 in SW 4.0 mph 8.1 mph 51 % 0.00 in
03:33 59.6 °F 41.9 °F 29.88 in WSW 0.8 mph 3.5 mph 52 % 0.00 in
03:38 59.6 °F 41.9 °F 29.89 in SW 4.8 mph 9.0 mph 52 % 0.00 in
03:43 59.5 °F 41.9 °F 29.88 in SW 4.5 mph 13.8 mph 52 % 0.00 in
03:48 59.4 °F 41.8 °F 29.88 in WNW 2.9 mph 4.0 mph 52 % 0.00 in
03:53 59.4 °F 42.3 °F 29.88 in WSW 6.4 mph 6.4 mph 53 % 0.00 in
03:59 59.3 °F 42.2 °F 29.88 in SSW 6.3 mph 10.4 mph 53 % 0.00 in
04:09 59.2 °F 42.1 °F 29.88 in SSW 3.4 mph 10.4 mph 53 % 0.00 in
04:19 59.0 °F 42.4 °F 29.89 in WSW 1.6 mph 4.6 mph 54 % 0.00 in
04:24 58.8 °F 42.7 °F 29.89 in WNW 4.1 mph 6.0 mph 55 % 0.00 in
04:29 58.7 °F 43.0 °F 29.89 in SW 5.5 mph 9.2 mph 56 % 0.00 in
04:34 58.6 °F 42.9 °F 29.89 in South 2.1 mph 9.2 mph 56 % 0.00 in
04:39 58.5 °F 44.7 °F 29.89 in WNW 3.4 mph 6.0 mph 60 % 0.00 in
04:44 58.2 °F 43.5 °F 29.89 in SW 4.4 mph 9.2 mph 58 % 0.00 in
04:50 58.1 °F 43.8 °F 29.89 in WNW 3.5 mph 12.0 mph 59 % 0.00 in
04:55 57.9 °F 43.7 °F 29.89 in WNW 3.9 mph 9.0 mph 59 % 0.00 in
05:00 57.6 °F 43.4 °F 29.89 in WSW 5.6 mph 10.0 mph 59 % 0.00 in
05:05 57.5 °F 43.7 °F 29.89 in SW 3.1 mph 8.1 mph 60 % 0.00 in
05:10 57.3 °F 43.5 °F 29.89 in WNW 4.1 mph 10.4 mph 60 % 0.00 in
05:15 57.3 °F 43.5 °F 29.90 in NW 2.1 mph 6.9 mph 60 % 0.00 in
05:20 57.2 °F 43.4 °F 29.89 in NW 4.9 mph 8.0 mph 60 % 0.00 in
05:25 57.1 °F 43.3 °F 29.90 in WSW 5.0 mph 9.2 mph 60 % 0.00 in
05:30 57.1 °F 43.8 °F 29.90 in WNW 3.7 mph 9.0 mph 61 % 0.00 in
05:35 57.0 °F 43.7 °F 29.90 in West 3.3 mph 5.8 mph 61 % 0.00 in
05:41 57.0 °F 43.7 °F 29.90 in NW 3.5 mph 8.1 mph 61 % 0.00 in
05:46 57.0 °F 43.7 °F 29.91 in NW 2.0 mph 6.9 mph 61 % 0.00 in
05:51 56.9 °F 44.0 °F 29.91 in West 3.6 mph 5.8 mph 62 % 0.00 in
05:56 57.0 °F 43.7 °F 29.91 in West 4.5 mph 9.2 mph 61 % 0.00 in
06:01 57.0 °F 43.7 °F 29.92 in SW 6.0 mph 13.8 mph 61 % 0.00 in
06:06 57.0 °F 43.7 °F 29.92 in NW 3.6 mph 6.9 mph 61 % 0.00 in
06:16 57.1 °F 44.2 °F 29.92 in West 3.6 mph 8.1 mph 62 % 0.00 in
06:21 57.1 °F 44.6 °F 29.93 in WNW 1.8 mph 5.8 mph 63 % 0.00 in
06:26 57.3 °F 44.4 °F 29.93 in WSW 5.8 mph 10.4 mph 62 % 0.00 in
06:32 57.5 °F 44.6 °F 29.93 in WSW 4.4 mph 7.0 mph 62 % 0.00 in
06:37 57.7 °F 44.8 °F 29.93 in West 2.4 mph 9.2 mph 62 % 0.00 in
06:42 58.0 °F 45.0 °F 29.93 in WNW 2.2 mph 5.8 mph 62 % 0.00 in
06:47 58.2 °F 44.8 °F 29.93 in West 6.0 mph 10.0 mph 61 % 0.00 in
06:52 58.4 °F 44.6 °F 29.93 in WSW 6.1 mph 11.0 mph 60 % 0.00 in
06:57 58.7 °F 45.3 °F 29.93 in WNW 6.1 mph 11.5 mph 61 % 0.00 in
07:02 58.9 °F 45.5 °F 29.93 in SSW 3.5 mph 5.0 mph 61 % 0.00 in
07:07 59.2 °F 45.8 °F 29.93 in NW 3.5 mph 3.5 mph 61 % 0.00 in
07:12 59.5 °F 45.2 °F 29.93 in NW 3.6 mph 10.4 mph 59 % 0.00 in
07:18 59.8 °F 46.3 °F 29.93 in West 1.5 mph 3.5 mph 61 % 0.00 in
07:23 60.1 °F 46.2 °F 29.94 in NW 2.0 mph 5.8 mph 60 % 0.00 in
07:28 60.5 °F 46.1 °F 29.94 in NW 1.9 mph 7.0 mph 59 % 0.00 in
07:33 60.7 °F 46.3 °F 29.94 in WNW 1.5 mph 5.8 mph 59 % 0.00 in
07:38 60.7 °F 45.4 °F 29.94 in NW 4.1 mph 6.9 mph 57 % 0.00 in
07:43 60.7 °F 46.7 °F 29.94 in North 1.6 mph 4.0 mph 60 % 0.00 in
07:48 60.5 °F 45.6 °F 29.94 in WSW 1.4 mph 3.5 mph 58 % 0.00 in
07:53 60.4 °F 45.5 °F 29.94 in WSW 1.6 mph 6.9 mph 58 % 0.00 in
08:03 60.4 °F 46.0 °F 29.94 in West 2.3 mph 4.0 mph 59 % 0.00 in
08:09 60.4 °F 46.0 °F 29.94 in West 2.5 mph 9.0 mph 59 % 0.00 in
08:14 60.4 °F 45.1 °F 29.94 in West 6.3 mph 10.4 mph 57 % 0.00 in
08:19 60.4 °F 45.5 °F 29.94 in West 4.1 mph 9.2 mph 58 % 0.00 in
08:24 60.5 °F 45.6 °F 29.94 in West 1.8 mph 5.8 mph 58 % 0.00 in
08:29 60.6 °F 45.3 °F 29.94 in NW 4.9 mph 9.0 mph 57 % 0.00 in
08:34 60.8 °F 45.0 °F 29.94 in NW 3.6 mph 10.4 mph 56 % 0.00 in
08:39 61.1 °F 44.8 °F 29.94 in SW 4.8 mph 8.1 mph 55 % 0.00 in
08:44 61.2 °F 45.4 °F 29.94 in NE 0.7 mph 3.0 mph 56 % 0.00 in
08:49 61.4 °F 45.1 °F 29.94 in WNW 6.1 mph 10.4 mph 55 % 0.00 in
08:54 61.6 °F 44.8 °F 29.94 in NNE 3.6 mph 11.5 mph 54 % 0.00 in
09:00 61.6 °F 45.3 °F 29.94 in NW 5.1 mph 9.2 mph 55 % 0.00 in
09:05 61.8 °F 45.0 °F 29.94 in West 6.7 mph 10.4 mph 54 % 0.00 in
09:10 62.0 °F 46.1 °F 29.95 in West 6.9 mph 11.5 mph 56 % 0.00 in
09:15 62.1 °F 45.7 °F 29.95 in WNW 3.1 mph 10.4 mph 55 % 0.00 in
09:20 62.2 °F 45.3 °F 29.95 in WNW 3.8 mph 10.0 mph 54 % 0.00 in
09:25 62.5 °F 45.6 °F 29.95 in NW 5.2 mph 11.5 mph 54 % 0.00 in
09:30 62.8 °F 45.4 °F 29.95 in WNW 3.1 mph 8.1 mph 53 % 0.00 in
09:40 63.5 °F 46.6 °F 29.95 in WNW 4.5 mph 7.0 mph 54 % 0.00 in
09:45 64.2 °F 46.2 °F 29.95 in West 3.1 mph 8.1 mph 52 % 0.00 in
09:51 65.1 °F 46.5 °F 29.95 in West 6.1 mph 9.0 mph 51 % 0.00 in
09:56 66.0 °F 46.8 °F 29.95 in NW 3.6 mph 8.1 mph 50 % 0.00 in
10:01 66.9 °F 47.6 °F 29.95 in NNW 4.0 mph 8.1 mph 50 % 0.00 in
10:06 67.6 °F 48.8 °F 29.95 in North 2.0 mph 3.5 mph 51 % 0.00 in
10:11 68.3 °F 47.8 °F 29.95 in NW 2.1 mph 3.5 mph 48 % 0.00 in
10:16 69.1 °F 48.0 °F 29.95 in SW 3.1 mph 5.0 mph 47 % 0.00 in
10:21 69.7 °F 49.1 °F 29.95 in West 6.2 mph 8.0 mph 48 % 0.00 in
10:26 70.4 °F 48.0 °F 29.95 in NNE 3.5 mph 6.9 mph 45 % 0.00 in
10:31 70.9 °F 50.8 °F 29.95 in NW 1.0 mph 4.0 mph 49 % 0.00 in
10:36 71.6 °F 48.5 °F 29.95 in NW 3.3 mph 4.6 mph 44 % 0.00 in
10:41 71.9 °F 48.2 °F 29.95 in WNW 3.0 mph 4.6 mph 43 % 0.00 in
10:46 72.2 °F 48.5 °F 29.96 in WNW 3.1 mph 4.6 mph 43 % 0.00 in
10:52 72.7 °F 50.1 °F 29.96 in ENE 2.1 mph 11.5 mph 45 % 0.00 in
10:57 73.3 °F 50.7 °F 29.96 in WNW 2.8 mph 8.1 mph 45 % 0.00 in
11:02 73.6 °F 52.7 °F 29.96 in NW 2.2 mph 4.6 mph 48 % 0.00 in
11:07 73.8 °F 49.3 °F 29.96 in NNW 3.0 mph 9.2 mph 42 % 0.00 in
11:12 74.0 °F 48.8 °F 29.97 in West 3.1 mph 5.8 mph 41 % 0.00 in
11:17 74.2 °F 46.2 °F 29.97 in WSW 0.9 mph 2.3 mph 37 % 0.00 in
11:27 74.7 °F 51.3 °F 29.97 in North 3.5 mph 6.9 mph 44 % 0.00 in
11:32 74.8 °F 51.4 °F 29.97 in West 0.9 mph 5.8 mph 44 % 0.00 in
11:37 75.3 °F 53.1 °F 29.97 in NNE 3.0 mph 6.9 mph 46 % 0.00 in
11:43 75.4 °F 50.1 °F 29.97 in West 4.2 mph 10.4 mph 41 % 0.00 in
11:48 75.4 °F 50.1 °F 29.97 in North 3.9 mph 9.2 mph 41 % 0.00 in
11:53 75.4 °F 50.7 °F 29.97 in NE 4.5 mph 11.5 mph 42 % 0.00 in
12:03 75.6 °F 50.2 °F 29.97 in NNW 4.0 mph 9.2 mph 41 % 0.00 in
12:08 75.8 °F 48.4 °F 29.97 in WSW 1.3 mph 5.8 mph 38 % 0.00 in
12:13 76.1 °F 52.0 °F 29.97 in WSW 3.2 mph 6.0 mph 43 % 0.00 in
12:18 76.3 °F 49.5 °F 29.97 in NNW 0.6 mph 5.8 mph 39 % 0.00 in
12:34 77.4 °F 49.8 °F 29.96 in NW 2.7 mph 7.0 mph 38 % 0.00 in
12:44 77.8 °F 50.2 °F 29.97 in WSW 1.1 mph 5.0 mph 38 % 0.00 in
12:49 78.1 °F 51.1 °F 29.97 in North 0.3 mph 1.2 mph 39 % 0.00 in
12:54 78.4 °F 52.7 °F 29.97 in NW 0.5 mph 4.6 mph 41 % 0.00 in
12:59 78.8 °F 51.0 °F 29.97 in NW 3.3 mph 6.0 mph 38 % 0.00 in
13:04 79.2 °F 51.4 °F 29.97 in NW 1.1 mph 5.8 mph 38 % 0.00 in
13:09 79.3 °F 51.5 °F 29.96 in NW 2.6 mph 4.6 mph 38 % 0.00 in
13:14 79.4 °F 49.4 °F 29.96 in WNW 1.8 mph 4.0 mph 35 % 0.00 in
13:19 79.6 °F 50.3 °F 29.96 in NNW 2.9 mph 8.1 mph 36 % 0.00 in
13:25 79.6 °F 48.8 °F 29.96 in West 3.6 mph 4.0 mph 34 % 0.00 in
13:30 79.8 °F 48.9 °F 29.96 in WNW 2.7 mph 5.0 mph 34 % 0.00 in
13:35 80.0 °F 50.6 °F 29.95 in NNE 2.3 mph 4.0 mph 36 % 0.00 in
13:40 80.1 °F 48.4 °F 29.96 in WNW 3.5 mph 5.0 mph 33 % 0.00 in
13:45 80.0 °F 49.1 °F 29.96 in SW 3.8 mph 6.9 mph 34 % 0.00 in
13:50 80.2 °F 48.5 °F 29.96 in North 2.3 mph 3.5 mph 33 % 0.00 in
13:55 80.5 °F 54.0 °F 29.95 in SW 1.7 mph 4.0 mph 40 % 0.00 in
14:00 80.5 °F 48.7 °F 29.95 in SW 3.6 mph 4.6 mph 33 % 0.00 in
14:05 80.4 °F 48.7 °F 29.95 in NW 2.8 mph 5.8 mph 33 % 0.00 in
14:11 80.2 °F 45.9 °F 29.95 in WSW 4.7 mph 9.0 mph 30 % 0.00 in
14:16 80.0 °F 48.3 °F 29.95 in West 1.3 mph 3.5 mph 33 % 0.00 in
14:21 80.2 °F 45.9 °F 29.95 in WNW 1.7 mph 6.0 mph 30 % 0.00 in
14:26 80.3 °F 46.0 °F 29.95 in WNW 4.5 mph 8.1 mph 30 % 0.00 in
14:31 80.2 °F 47.7 °F 29.94 in WNW 2.6 mph 8.0 mph 32 % 0.00 in
14:36 80.5 °F 47.1 °F 29.94 in NW 3.8 mph 6.9 mph 31 % 0.00 in
14:41 80.6 °F 50.4 °F 29.94 in North 1.5 mph 2.0 mph 35 % 0.00 in
14:51 80.8 °F 50.6 °F 29.95 in WNW 2.4 mph 10.4 mph 35 % 0.00 in
14:56 80.9 °F 47.4 °F 29.94 in WNW 1.1 mph 5.8 mph 31 % 0.00 in
15:02 81.0 °F 50.8 °F 29.94 in WSW 1.5 mph 6.9 mph 35 % 0.00 in
15:07 81.1 °F 47.6 °F 29.94 in North 2.5 mph 4.6 mph 31 % 0.00 in
15:12 81.1 °F 46.7 °F 29.94 in West 3.3 mph 8.1 mph 30 % 0.00 in
15:17 81.1 °F 45.8 °F 29.94 in WNW 1.7 mph 8.1 mph 29 % 0.00 in
15:22 81.1 °F 47.6 °F 29.94 in NNW 2.9 mph 5.8 mph 31 % 0.00 in
15:27 80.9 °F 47.4 °F 29.94 in SSW 1.0 mph 8.1 mph 31 % 0.00 in
15:32 80.9 °F 47.4 °F 29.94 in WSW 2.5 mph 7.0 mph 31 % 0.00 in
15:37 80.9 °F 46.6 °F 29.94 in West 4.3 mph 8.1 mph 30 % 0.00 in
15:42 80.8 °F 46.5 °F 29.94 in West 3.4 mph 8.1 mph 30 % 0.00 in
15:47 80.9 °F 49.1 °F 29.94 in North 0.5 mph 3.5 mph 33 % 0.00 in
15:53 81.1 °F 48.4 °F 29.93 in NW 2.1 mph 5.8 mph 32 % 0.00 in
15:58 81.2 °F 48.5 °F 29.93 in SW 3.0 mph 6.9 mph 32 % 0.00 in
16:03 81.2 °F 47.7 °F 29.93 in WNW 0.9 mph 2.3 mph 31 % 0.00 in
16:08 81.4 °F 48.7 °F 29.93 in WNW 3.1 mph 5.8 mph 32 % 0.00 in
16:18 81.3 °F 48.6 °F 29.93 in WNW 1.3 mph 5.0 mph 32 % 0.00 in
16:23 81.2 °F 48.5 °F 29.93 in SSW 2.5 mph 4.0 mph 32 % 0.00 in
16:33 80.9 °F 45.7 °F 29.93 in SW 3.9 mph 5.8 mph 29 % 0.00 in
16:38 80.9 °F 48.3 °F 29.93 in WNW 2.6 mph 4.6 mph 32 % 0.00 in
16:44 80.8 °F 51.4 °F 29.93 in WNW 0.3 mph 2.3 mph 36 % 0.00 in
16:49 80.8 °F 49.0 °F 29.93 in NW 0.8 mph 3.5 mph 33 % 0.00 in
16:54 80.6 °F 45.4 °F 29.93 in West 2.1 mph 3.5 mph 29 % 0.00 in
16:59 80.4 °F 47.0 °F 29.93 in SW 3.1 mph 5.8 mph 31 % 0.00 in
17:04 80.2 °F 45.1 °F 29.93 in WNW 1.2 mph 3.5 mph 29 % 0.00 in
17:14 79.4 °F 46.1 °F 29.93 in WNW 0.6 mph 3.5 mph 31 % 0.00 in
17:19 79.2 °F 46.8 °F 29.93 in WSW 1.1 mph 4.6 mph 32 % 0.00 in
17:24 78.9 °F 45.7 °F 29.93 in WSW 0.7 mph 3.5 mph 31 % 0.00 in
17:29 78.7 °F 45.5 °F 29.93 in WNW 2.8 mph 3.5 mph 31 % 0.00 in
17:35 78.5 °F 46.2 °F 29.93 in WSW 3.5 mph 5.8 mph 32 % 0.00 in
17:45 77.9 °F 46.5 °F 29.93 in NW 2.2 mph 3.5 mph 33 % 0.00 in
17:50 77.6 °F 44.6 °F 29.93 in West 1.4 mph 4.6 mph 31 % 0.00 in
17:55 77.4 °F 45.2 °F 29.93 in WNW 0.5 mph 4.0 mph 32 % 0.00 in
18:00 77.3 °F 46.7 °F 29.94 in West 0.3 mph 2.3 mph 34 % 0.00 in
18:05 77.1 °F 45.0 °F 29.94 in WNW 0.1 mph 3.5 mph 32 % 0.00 in
18:10 76.9 °F 44.8 °F 29.94 in WNW 1.6 mph 2.3 mph 32 % 0.00 in
18:15 76.7 °F 45.4 °F 29.94 in WNW 0.9 mph 5.0 mph 33 % 0.00 in
18:20 76.5 °F 46.0 °F 29.94 in West 0.6 mph 1.2 mph 34 % 0.00 in
18:26 76.4 °F 44.4 °F 29.94 in SW 2.6 mph 4.6 mph 32 % 0.00 in
18:31 76.2 °F 45.0 °F 29.94 in West 0.1 mph 2.3 mph 33 % 0.00 in
18:36 76.1 °F 44.9 °F 29.94 in Calm     33 % 0.00 in
18:41 75.9 °F 45.5 °F 29.94 in West 0.7 mph 2.3 mph 34 % 0.00 in
18:51 75.7 °F 45.3 °F 29.94 in Calm     34 % 0.00 in
18:56 75.6 °F 46.0 °F 29.95 in Calm     35 % 0.00 in
19:01 75.4 °F 45.8 °F 29.95 in Calm     35 % 0.00 in
19:06 75.3 °F 45.7 °F 29.95 in Calm   1.2 mph 35 % 0.00 in
19:11 75.2 °F 45.7 °F 29.95 in Calm     35 % 0.00 in
19:17 75.1 °F 46.3 °F 29.95 in Calm     36 % 0.00 in
19:22 75.0 °F 45.5 °F 29.95 in Calm     35 % 0.00 in
19:27 74.9 °F 47.6 °F 29.95 in Calm     38 % 0.00 in
19:32 74.8 °F 48.9 °F 29.95 in Calm     40 % 0.00 in
19:37 74.6 °F 48.0 °F 29.95 in Calm     39 % 0.00 in
19:42 74.4 °F 49.2 °F 29.95 in Calm     41 % 0.00 in
19:47 74.1 °F 50.2 °F 29.96 in Calm     43 % 0.00 in
19:52 73.8 °F 49.9 °F 29.96 in Calm     43 % 0.00 in
19:57 73.4 °F 50.2 °F 29.96 in Calm     44 % 0.00 in
20:13 72.1 °F 50.8 °F 29.96 in Calm     47 % 0.00 in
20:18 71.5 °F 51.9 °F 29.96 in WNW 0.4 mph 1.2 mph 50 % 0.00 in
20:23 70.9 °F 51.9 °F 29.96 in WNW 0.1 mph   51 % 0.00 in
20:28 70.3 °F 51.3 °F 29.96 in Calm   1.0 mph 51 % 0.00 in
20:33 69.8 °F 50.9 °F 29.96 in Calm     51 % 0.00 in
20:38 69.4 °F 50.5 °F 29.96 in Calm     51 % 0.00 in
20:43 68.9 °F 51.1 °F 29.96 in Calm     53 % 0.00 in
20:48 68.4 °F 51.6 °F 29.96 in Calm     55 % 0.00 in
20:53 67.9 °F 51.6 °F 29.96 in Calm     56 % 0.00 in
20:59 67.4 °F 51.6 °F 29.96 in Calm     57 % 0.00 in
21:04 67.0 °F 51.7 °F 29.96 in Calm     58 % 0.00 in
21:09 66.5 °F 51.7 °F 29.97 in Calm     59 % 0.00 in
21:14 66.0 °F 53.0 °F 29.97 in Calm     63 % 0.00 in
21:19 65.5 °F 52.6 °F 29.97 in Calm     63 % 0.00 in
21:24 65.2 °F 52.7 °F 29.98 in Calm     64 % 0.00 in
21:29 64.8 °F 51.9 °F 29.98 in WNW 0.1 mph   63 % 0.00 in
21:34 64.5 °F 52.0 °F 29.98 in WNW 0.1 mph   64 % 0.00 in
21:44 63.7 °F 51.7 °F 29.98 in WNW 1.0 mph 2.3 mph 65 % 0.00 in
21:50 63.3 °F 51.3 °F 29.98 in WNW 0.7 mph 1.2 mph 65 % 0.00 in
21:55 63.2 °F 51.2 °F 29.98 in WNW 1.4 mph 2.3 mph 65 % 0.00 in
22:00 62.9 °F 51.0 °F 29.98 in WSW 2.0 mph 3.5 mph 65 % 0.00 in
22:05 62.7 °F 50.3 °F 29.98 in WSW 0.7 mph 2.3 mph 64 % 0.00 in
22:10 62.5 °F 50.2 °F 29.98 in WSW 0.7 mph 2.3 mph 64 % 0.00 in
22:15 62.3 °F 50.4 °F 29.98 in Calm     65 % 0.00 in
22:20 62.1 °F 50.2 °F 29.98 in Calm     65 % 0.00 in
22:25 62.0 °F 50.1 °F 29.98 in Calm     65 % 0.00 in
22:30 61.8 °F 50.3 °F 29.98 in Calm     66 % 0.00 in
22:35 61.6 °F 50.5 °F 29.98 in Calm   1.2 mph 67 % 0.00 in
22:41 61.4 °F 50.7 °F 29.99 in WSW 0.6 mph 1.2 mph 68 % 0.00 in
22:46 61.2 °F 50.6 °F 29.99 in WSW 0.3 mph 1.0 mph 68 % 0.00 in
22:51 60.9 °F 50.3 °F 29.99 in Calm   1.2 mph 68 % 0.00 in
22:56 60.7 °F 50.1 °F 29.99 in WSW 0.2 mph 1.2 mph 68 % 0.00 in
23:01 60.4 °F 49.8 °F 29.99 in WSW 0.2 mph 1.2 mph 68 % 0.00 in
23:06 60.2 °F 50.0 °F 29.99 in WSW 1.6 mph 3.0 mph 69 % 0.00 in
23:11 60.1 °F 49.5 °F 29.99 in SW 2.4 mph 3.5 mph 68 % 0.00 in
23:16 60.1 °F 49.5 °F 30.00 in WSW 2.6 mph 3.5 mph 68 % 0.00 in
23:26 60.2 °F 49.2 °F 30.00 in Calm   1.2 mph 67 % 0.00 in
23:32 60.4 °F 49.4 °F 30.00 in Calm     67 % 0.00 in
23:37 60.5 °F 49.5 °F 30.00 in Calm   1.2 mph 67 % 0.00 in
23:42 60.6 °F 50.0 °F 30.00 in WSW 1.1 mph 3.5 mph 68 % 0.00 in
23:52 60.7 °F 49.7 °F 30.00 in West 0.5 mph 1.2 mph 67 % 0.00 in
23:57 60.7 °F 48.9 °F 30.00 in West 1.1 mph 2.3 mph 65 % 0.00 in
Crab Meadow Weather
Compliments of Weather Underground - 2.75 mb

Script developed by  Jim McMurry - jmcmurry@mwt.net Adapted for the template by  Wim van der Kuil - Leuven-Template.eu

Recycling: We use over 80,000,000,000 aluminum soda cans every year.